sensor_id;sensor_type;location;lat;lon;timestamp;temperature;humidity
34829;DHT22;21042;47.620;12.188;2022-09-30T00:01:09;8.30;99.90
34829;DHT22;21042;47.620;12.188;2022-09-30T00:03:36;8.30;99.90
34829;DHT22;21042;47.620;12.188;2022-09-30T00:06:05;8.30;99.90
34829;DHT22;21042;47.620;12.188;2022-09-30T00:08:38;8.20;99.90
34829;DHT22;21042;47.620;12.188;2022-09-30T00:11:13;8.30;99.90
34829;DHT22;21042;47.620;12.188;2022-09-30T00:13:42;8.30;99.90
34829;DHT22;21042;47.620;12.188;2022-09-30T00:16:10;8.30;99.90
34829;DHT22;21042;47.620;12.188;2022-09-30T00:18:37;8.30;99.90
34829;DHT22;21042;47.620;12.188;2022-09-30T00:21:06;8.30;99.90
34829;DHT22;21042;47.620;12.188;2022-09-30T00:23:34;8.20;99.90
34829;DHT22;21042;47.620;12.188;2022-09-30T00:26:06;8.20;99.90
34829;DHT22;21042;47.620;12.188;2022-09-30T00:28:34;8.30;99.90
34829;DHT22;21042;47.620;12.188;2022-09-30T00:31:02;8.30;99.90
34829;DHT22;21042;47.620;12.188;2022-09-30T00:33:30;8.30;99.90
34829;DHT22;21042;47.620;12.188;2022-09-30T00:35:56;8.20;99.90
34829;DHT22;21042;47.620;12.188;2022-09-30T00:38:23;8.10;99.90
34829;DHT22;21042;47.620;12.188;2022-09-30T00:40:50;8.20;99.90
34829;DHT22;21042;47.620;12.188;2022-09-30T00:43:20;8.10;99.90
34829;DHT22;21042;47.620;12.188;2022-09-30T00:46:03;8.20;99.90
34829;DHT22;21042;47.620;12.188;2022-09-30T00:48:35;8.20;99.90
34829;DHT22;21042;47.620;12.188;2022-09-30T00:51:05;8.20;99.90
34829;DHT22;21042;47.620;12.188;2022-09-30T00:53:46;8.20;99.90
34829;DHT22;21042;47.620;12.188;2022-09-30T00:56:29;8.20;99.90
34829;DHT22;21042;47.620;12.188;2022-09-30T00:59:09;8.20;99.90
34829;DHT22;21042;47.620;12.188;2022-09-30T01:01:39;8.20;99.90
34829;DHT22;21042;47.620;12.188;2022-09-30T01:04:13;8.20;99.90
34829;DHT22;21042;47.620;12.188;2022-09-30T01:06:41;8.20;99.90
34829;DHT22;21042;47.620;12.188;2022-09-30T01:09:08;8.20;99.90
34829;DHT22;21042;47.620;12.188;2022-09-30T01:11:36;8.20;99.90
34829;DHT22;21042;47.620;12.188;2022-09-30T01:14:22;8.20;99.90
34829;DHT22;21042;47.620;12.188;2022-09-30T01:17:16;8.20;99.90
34829;DHT22;21042;47.620;12.188;2022-09-30T01:25:35;8.20;99.90
34829;DHT22;21042;47.620;12.188;2022-09-30T01:33:55;8.20;99.90
34829;DHT22;21042;47.620;12.188;2022-09-30T01:44:50;8.30;99.90
34829;DHT22;21042;47.620;12.188;2022-09-30T01:47:25;8.30;99.90
34829;DHT22;21042;47.620;12.188;2022-09-30T01:50:04;8.30;99.90
34829;DHT22;21042;47.620;12.188;2022-09-30T01:52:47;8.30;99.90
34829;DHT22;21042;47.620;12.188;2022-09-30T01:55:24;8.30;99.90
34829;DHT22;21042;47.620;12.188;2022-09-30T01:58:13;8.30;99.90
34829;DHT22;21042;47.620;12.188;2022-09-30T02:00:46;8.30;99.90
34829;DHT22;21042;47.620;12.188;2022-09-30T02:03:31;8.30;99.90
34829;DHT22;21042;47.620;12.188;2022-09-30T02:06:09;8.40;99.90
34829;DHT22;21042;47.620;12.188;2022-09-30T02:08:43;8.30;99.90
34829;DHT22;21042;47.620;12.188;2022-09-30T02:11:17;8.30;99.90
34829;DHT22;21042;47.620;12.188;2022-09-30T02:16:35;8.40;99.90
34829;DHT22;21042;47.620;12.188;2022-09-30T02:19:12;8.40;99.90
34829;DHT22;21042;47.620;12.188;2022-09-30T02:21:44;8.40;99.90
34829;DHT22;21042;47.620;12.188;2022-09-30T02:24:15;8.40;99.90
34829;DHT22;21042;47.620;12.188;2022-09-30T02:26:44;8.30;99.90
34829;DHT22;21042;47.620;12.188;2022-09-30T02:29:18;8.30;99.90
34829;DHT22;21042;47.620;12.188;2022-09-30T02:31:49;8.30;99.90
34829;DHT22;21042;47.620;12.188;2022-09-30T02:34:29;8.30;99.90
34829;DHT22;21042;47.620;12.188;2022-09-30T02:37:11;8.40;99.90
34829;DHT22;21042;47.620;12.188;2022-09-30T02:40:06;8.30;99.90
34829;DHT22;21042;47.620;12.188;2022-09-30T02:42:36;8.30;99.90
34829;DHT22;21042;47.620;12.188;2022-09-30T02:45:09;8.30;99.90
34829;DHT22;21042;47.620;12.188;2022-09-30T02:48:12;8.40;99.90
34829;DHT22;21042;47.620;12.188;2022-09-30T02:50:57;8.40;99.90
34829;DHT22;21042;47.620;12.188;2022-09-30T02:53:33;8.30;99.90
34829;DHT22;21042;47.620;12.188;2022-09-30T02:58:49;8.30;99.90
34829;DHT22;21042;47.620;12.188;2022-09-30T03:01:17;8.30;99.90
34829;DHT22;21042;47.620;12.188;2022-09-30T03:03:52;8.40;99.90
34829;DHT22;21042;47.620;12.188;2022-09-30T03:06:20;8.40;99.90
34829;DHT22;21042;47.620;12.188;2022-09-30T03:08:47;8.50;99.90
34829;DHT22;21042;47.620;12.188;2022-09-30T03:11:19;8.40;99.90
34829;DHT22;21042;47.620;12.188;2022-09-30T03:16:49;8.40;99.90
34829;DHT22;21042;47.620;12.188;2022-09-30T03:25:09;8.40;99.90
34829;DHT22;21042;47.620;12.188;2022-09-30T03:28:01;8.40;99.90
34829;DHT22;21042;47.620;12.188;2022-09-30T03:30:32;8.40;99.90
34829;DHT22;21042;47.620;12.188;2022-09-30T03:33:20;8.40;99.90
34829;DHT22;21042;47.620;12.188;2022-09-30T03:36:03;8.40;99.90
34829;DHT22;21042;47.620;12.188;2022-09-30T03:41:26;8.50;99.90
34829;DHT22;21042;47.620;12.188;2022-09-30T03:46:45;8.40;99.90
34829;DHT22;21042;47.620;12.188;2022-09-30T03:49:17;8.40;99.90
34829;DHT22;21042;47.620;12.188;2022-09-30T03:51:46;8.40;99.90
34829;DHT22;21042;47.620;12.188;2022-09-30T03:54:16;8.30;99.90
34829;DHT22;21042;47.620;12.188;2022-09-30T03:56:43;8.30;99.90
34829;DHT22;21042;47.620;12.188;2022-09-30T03:59:23;8.30;99.90
34829;DHT22;21042;47.620;12.188;2022-09-30T04:01:51;8.30;99.90
34829;DHT22;21042;47.620;12.188;2022-09-30T04:04:18;8.30;99.90
34829;DHT22;21042;47.620;12.188;2022-09-30T04:06:44;8.30;99.90
34829;DHT22;21042;47.620;12.188;2022-09-30T04:09:12;8.30;99.90
34829;DHT22;21042;47.620;12.188;2022-09-30T04:11:39;8.20;99.90
34829;DHT22;21042;47.620;12.188;2022-09-30T04:14:06;8.20;99.90
34829;DHT22;21042;47.620;12.188;2022-09-30T04:16:32;8.10;99.90
34829;DHT22;21042;47.620;12.188;2022-09-30T04:19:00;8.00;99.90
34829;DHT22;21042;47.620;12.188;2022-09-30T04:21:27;8.00;99.90
34829;DHT22;21042;47.620;12.188;2022-09-30T04:23:54;8.00;99.90
34829;DHT22;21042;47.620;12.188;2022-09-30T04:26:21;7.90;99.90
34829;DHT22;21042;47.620;12.188;2022-09-30T04:28:48;8.00;99.90
34829;DHT22;21042;47.620;12.188;2022-09-30T04:31:15;8.00;99.90
34829;DHT22;21042;47.620;12.188;2022-09-30T04:33:43;8.00;99.90
34829;DHT22;21042;47.620;12.188;2022-09-30T04:36:10;8.10;99.90
34829;DHT22;21042;47.620;12.188;2022-09-30T04:38:37;8.10;99.90
34829;DHT22;21042;47.620;12.188;2022-09-30T04:41:05;8.10;99.90
34829;DHT22;21042;47.620;12.188;2022-09-30T04:43:33;8.10;99.90
34829;DHT22;21042;47.620;12.188;2022-09-30T04:45:59;8.10;99.90
34829;DHT22;21042;47.620;12.188;2022-09-30T04:48:27;8.10;99.90
34829;DHT22;21042;47.620;12.188;2022-09-30T04:50:57;8.00;99.90
34829;DHT22;21042;47.620;12.188;2022-09-30T04:53:25;8.00;99.90
34829;DHT22;21042;47.620;12.188;2022-09-30T04:55:57;8.00;99.90
34829;DHT22;21042;47.620;12.188;2022-09-30T04:58:25;8.00;99.90
34829;DHT22;21042;47.620;12.188;2022-09-30T05:01:05;8.10;99.90
34829;DHT22;21042;47.620;12.188;2022-09-30T05:03:33;8.10;99.90
34829;DHT22;21042;47.620;12.188;2022-09-30T05:06:01;8.10;99.90
34829;DHT22;21042;47.620;12.188;2022-09-30T05:08:28;8.10;99.90
34829;DHT22;21042;47.620;12.188;2022-09-30T05:11:01;8.10;99.90
34829;DHT22;21042;47.620;12.188;2022-09-30T05:13:33;8.10;99.90
34829;DHT22;21042;47.620;12.188;2022-09-30T05:16:01;8.20;99.90
34829;DHT22;21042;47.620;12.188;2022-09-30T05:18:28;8.20;99.90
34829;DHT22;21042;47.620;12.188;2022-09-30T05:20:56;8.20;99.90
34829;DHT22;21042;47.620;12.188;2022-09-30T05:23:24;8.20;99.90
34829;DHT22;21042;47.620;12.188;2022-09-30T05:25:52;8.20;99.90
34829;DHT22;21042;47.620;12.188;2022-09-30T05:28:19;8.20;99.90
34829;DHT22;21042;47.620;12.188;2022-09-30T05:30:46;8.10;99.90
34829;DHT22;21042;47.620;12.188;2022-09-30T05:33:13;8.10;99.90
34829;DHT22;21042;47.620;12.188;2022-09-30T05:35:41;8.10;99.90
34829;DHT22;21042;47.620;12.188;2022-09-30T05:38:08;8.10;99.90
34829;DHT22;21042;47.620;12.188;2022-09-30T05:40:37;8.20;99.90
34829;DHT22;21042;47.620;12.188;2022-09-30T05:43:08;8.20;99.90
34829;DHT22;21042;47.620;12.188;2022-09-30T05:45:35;8.20;99.90
34829;DHT22;21042;47.620;12.188;2022-09-30T05:48:03;8.20;99.90
34829;DHT22;21042;47.620;12.188;2022-09-30T05:50:30;8.30;99.90
34829;DHT22;21042;47.620;12.188;2022-09-30T05:52:57;8.30;99.90
34829;DHT22;21042;47.620;12.188;2022-09-30T05:55:24;8.30;99.90
34829;DHT22;21042;47.620;12.188;2022-09-30T05:57:51;8.30;99.90
34829;DHT22;21042;47.620;12.188;2022-09-30T06:00:18;8.30;99.90
34829;DHT22;21042;47.620;12.188;2022-09-30T06:02:49;8.30;99.90
34829;DHT22;21042;47.620;12.188;2022-09-30T06:05:16;8.40;99.90
34829;DHT22;21042;47.620;12.188;2022-09-30T06:07:43;8.40;99.90
34829;DHT22;21042;47.620;12.188;2022-09-30T06:10:09;8.50;99.90
34829;DHT22;21042;47.620;12.188;2022-09-30T06:12:38;8.50;99.90
34829;DHT22;21042;47.620;12.188;2022-09-30T06:15:05;8.50;99.90
34829;DHT22;21042;47.620;12.188;2022-09-30T06:17:32;8.50;99.90
34829;DHT22;21042;47.620;12.188;2022-09-30T06:19:59;8.60;99.90
34829;DHT22;21042;47.620;12.188;2022-09-30T06:22:26;8.60;99.90
34829;DHT22;21042;47.620;12.188;2022-09-30T06:24:53;8.50;99.90
34829;DHT22;21042;47.620;12.188;2022-09-30T06:27:21;8.60;99.90
34829;DHT22;21042;47.620;12.188;2022-09-30T06:29:48;8.60;99.90
34829;DHT22;21042;47.620;12.188;2022-09-30T06:32:14;8.70;99.90
34829;DHT22;21042;47.620;12.188;2022-09-30T06:34:42;8.70;99.90
34829;DHT22;21042;47.620;12.188;2022-09-30T06:37:09;8.80;99.90
34829;DHT22;21042;47.620;12.188;2022-09-30T06:39:39;8.90;99.90
34829;DHT22;21042;47.620;12.188;2022-09-30T06:42:07;9.00;99.90
34829;DHT22;21042;47.620;12.188;2022-09-30T06:44:34;9.00;99.90
34829;DHT22;21042;47.620;12.188;2022-09-30T06:47:15;9.10;99.90
34829;DHT22;21042;47.620;12.188;2022-09-30T06:49:51;9.20;99.90
34829;DHT22;21042;47.620;12.188;2022-09-30T06:52:19;9.20;99.90
34829;DHT22;21042;47.620;12.188;2022-09-30T06:54:45;9.20;99.90
34829;DHT22;21042;47.620;12.188;2022-09-30T06:57:12;9.30;99.90
34829;DHT22;21042;47.620;12.188;2022-09-30T06:59:39;9.30;99.90
34829;DHT22;21042;47.620;12.188;2022-09-30T07:02:07;9.30;99.90
34829;DHT22;21042;47.620;12.188;2022-09-30T07:04:34;9.40;99.90
34829;DHT22;21042;47.620;12.188;2022-09-30T07:07:01;9.50;99.90
34829;DHT22;21042;47.620;12.188;2022-09-30T07:09:28;9.50;99.90
34829;DHT22;21042;47.620;12.188;2022-09-30T07:11:55;9.60;99.90
34829;DHT22;21042;47.620;12.188;2022-09-30T07:14:21;9.70;99.90
34829;DHT22;21042;47.620;12.188;2022-09-30T07:16:50;9.80;99.90
34829;DHT22;21042;47.620;12.188;2022-09-30T07:19:22;9.90;99.90
34829;DHT22;21042;47.620;12.188;2022-09-30T07:21:49;9.90;99.90
34829;DHT22;21042;47.620;12.188;2022-09-30T07:24:16;9.90;99.90
34829;DHT22;21042;47.620;12.188;2022-09-30T07:26:43;9.90;99.90
34829;DHT22;21042;47.620;12.188;2022-09-30T07:29:11;9.80;99.90
34829;DHT22;21042;47.620;12.188;2022-09-30T07:31:39;9.80;99.90
34829;DHT22;21042;47.620;12.188;2022-09-30T07:34:08;9.80;99.90
34829;DHT22;21042;47.620;12.188;2022-09-30T07:36:39;9.80;99.90
34829;DHT22;21042;47.620;12.188;2022-09-30T07:39:08;9.90;99.90
34829;DHT22;21042;47.620;12.188;2022-09-30T07:41:37;10.00;99.90
34829;DHT22;21042;47.620;12.188;2022-09-30T07:44:10;9.90;99.90
34829;DHT22;21042;47.620;12.188;2022-09-30T07:46:41;9.90;99.90
34829;DHT22;21042;47.620;12.188;2022-09-30T07:49:13;10.00;99.90
34829;DHT22;21042;47.620;12.188;2022-09-30T07:51:41;10.10;99.90
34829;DHT22;21042;47.620;12.188;2022-09-30T07:54:15;10.30;99.90
34829;DHT22;21042;47.620;12.188;2022-09-30T07:56:42;10.40;99.90
34829;DHT22;21042;47.620;12.188;2022-09-30T07:59:31;10.40;99.90
34829;DHT22;21042;47.620;12.188;2022-09-30T08:02:23;10.40;99.90
34829;DHT22;21042;47.620;12.188;2022-09-30T08:04:50;10.60;99.90
34829;DHT22;21042;47.620;12.188;2022-09-30T08:07:17;10.60;99.90
34829;DHT22;21042;47.620;12.188;2022-09-30T08:09:44;10.80;99.90
34829;DHT22;21042;47.620;12.188;2022-09-30T08:12:11;10.90;99.90
34829;DHT22;21042;47.620;12.188;2022-09-30T08:14:38;11.00;99.90
34829;DHT22;21042;47.620;12.188;2022-09-30T08:17:05;11.00;99.90
34829;DHT22;21042;47.620;12.188;2022-09-30T08:19:31;11.10;99.90
34829;DHT22;21042;47.620;12.188;2022-09-30T08:21:59;11.30;99.90
34829;DHT22;21042;47.620;12.188;2022-09-30T08:24:26;11.40;99.90
34829;DHT22;21042;47.620;12.188;2022-09-30T08:26:54;11.30;99.90
34829;DHT22;21042;47.620;12.188;2022-09-30T08:29:21;11.30;99.90
34829;DHT22;21042;47.620;12.188;2022-09-30T08:32:08;11.40;99.90
34829;DHT22;21042;47.620;12.188;2022-09-30T08:34:34;11.60;99.90
34829;DHT22;21042;47.620;12.188;2022-09-30T08:37:02;11.70;99.90
34829;DHT22;21042;47.620;12.188;2022-09-30T08:39:38;11.70;99.90
34829;DHT22;21042;47.620;12.188;2022-09-30T08:42:25;11.90;99.90
34829;DHT22;21042;47.620;12.188;2022-09-30T08:53:47;12.20;99.90
34829;DHT22;21042;47.620;12.188;2022-09-30T08:56:23;12.20;99.90
34829;DHT22;21042;47.620;12.188;2022-09-30T08:58:54;12.20;99.90
34829;DHT22;21042;47.620;12.188;2022-09-30T09:01:32;12.40;99.90
34829;DHT22;21042;47.620;12.188;2022-09-30T09:04:01;12.40;99.90
34829;DHT22;21042;47.620;12.188;2022-09-30T09:06:47;12.40;99.90
34829;DHT22;21042;47.620;12.188;2022-09-30T09:09:47;12.40;99.90
34829;DHT22;21042;47.620;12.188;2022-09-30T09:12:36;12.50;99.90
34829;DHT22;21042;47.620;12.188;2022-09-30T09:15:24;12.60;99.90
34829;DHT22;21042;47.620;12.188;2022-09-30T09:18:04;12.60;99.90
34829;DHT22;21042;47.620;12.188;2022-09-30T09:23:20;12.80;99.90
34829;DHT22;21042;47.620;12.188;2022-09-30T09:25:48;12.70;99.90
34829;DHT22;21042;47.620;12.188;2022-09-30T09:31:03;12.90;99.90
34829;DHT22;21042;47.620;12.188;2022-09-30T09:33:34;13.00;99.90
34829;DHT22;21042;47.620;12.188;2022-09-30T09:42:12;13.40;99.90
34829;DHT22;21042;47.620;12.188;2022-09-30T09:44:38;13.40;99.90
34829;DHT22;21042;47.620;12.188;2022-09-30T09:47:11;13.50;99.90
34829;DHT22;21042;47.620;12.188;2022-09-30T09:49:43;13.40;99.90
34829;DHT22;21042;47.620;12.188;2022-09-30T09:54:43;13.50;99.90
34829;DHT22;21042;47.620;12.188;2022-09-30T09:57:16;13.40;99.90
34829;DHT22;21042;47.620;12.188;2022-09-30T10:05:32;13.60;99.90
34829;DHT22;21042;47.620;12.188;2022-09-30T10:08:21;13.60;99.90
34829;DHT22;21042;47.620;12.188;2022-09-30T10:13:21;13.30;99.90
34829;DHT22;21042;47.620;12.188;2022-09-30T10:15:51;13.30;99.90
34829;DHT22;21042;47.620;12.188;2022-09-30T10:18:31;13.20;99.90
34829;DHT22;21042;47.620;12.188;2022-09-30T10:21:18;13.10;99.90
34829;DHT22;21042;47.620;12.188;2022-09-30T10:23:46;13.00;99.90
34829;DHT22;21042;47.620;12.188;2022-09-30T10:28:47;12.80;99.90
34829;DHT22;21042;47.620;12.188;2022-09-30T10:36:30;12.70;99.90
34829;DHT22;21042;47.620;12.188;2022-09-30T10:38:59;12.90;99.90
34829;DHT22;21042;47.620;12.188;2022-09-30T10:41:34;13.00;99.90
34829;DHT22;21042;47.620;12.188;2022-09-30T10:44:06;13.00;99.90
34829;DHT22;21042;47.620;12.188;2022-09-30T10:46:39;13.20;99.90
34829;DHT22;21042;47.620;12.188;2022-09-30T10:49:19;13.30;99.90
34829;DHT22;21042;47.620;12.188;2022-09-30T10:51:50;13.60;99.90
34829;DHT22;21042;47.620;12.188;2022-09-30T10:54:53;13.80;99.90
34829;DHT22;21042;47.620;12.188;2022-09-30T10:59:53;14.00;99.90
34829;DHT22;21042;47.620;12.188;2022-09-30T11:05:41;13.90;99.90
34829;DHT22;21042;47.620;12.188;2022-09-30T11:08:23;13.80;99.90
34829;DHT22;21042;47.620;12.188;2022-09-30T11:11:11;13.90;99.90
34829;DHT22;21042;47.620;12.188;2022-09-30T11:13:49;14.00;99.90
34829;DHT22;21042;47.620;12.188;2022-09-30T11:21:43;13.60;99.90
34829;DHT22;21042;47.620;12.188;2022-09-30T11:30:19;13.40;99.90
34829;DHT22;21042;47.620;12.188;2022-09-30T11:35:54;13.50;99.90
34829;DHT22;21042;47.620;12.188;2022-09-30T11:38:45;13.70;99.90
34829;DHT22;21042;47.620;12.188;2022-09-30T11:55:20;14.30;99.90
34829;DHT22;21042;47.620;12.188;2022-09-30T11:58:05;14.20;99.90
34829;DHT22;21042;47.620;12.188;2022-09-30T12:03:44;14.20;99.90
34829;DHT22;21042;47.620;12.188;2022-09-30T12:08:58;14.20;99.90
34829;DHT22;21042;47.620;12.188;2022-09-30T12:13:57;14.10;99.90
34829;DHT22;21042;47.620;12.188;2022-09-30T12:16:28;14.00;99.90
34829;DHT22;21042;47.620;12.188;2022-09-30T12:19:10;14.00;99.90
34829;DHT22;21042;47.620;12.188;2022-09-30T12:21:46;14.00;99.90
34829;DHT22;21042;47.620;12.188;2022-09-30T12:24:35;13.90;99.90
34829;DHT22;21042;47.620;12.188;2022-09-30T12:27:19;14.10;99.90
34829;DHT22;21042;47.620;12.188;2022-09-30T12:30:02;14.30;99.90
34829;DHT22;21042;47.620;12.188;2022-09-30T12:38:21;14.40;99.90
34829;DHT22;21042;47.620;12.188;2022-09-30T12:46:53;14.30;99.90
34829;DHT22;21042;47.620;12.188;2022-09-30T12:49:27;14.20;99.90
34829;DHT22;21042;47.620;12.188;2022-09-30T12:52:03;14.10;99.90
34829;DHT22;21042;47.620;12.188;2022-09-30T12:54:37;14.30;99.90
34829;DHT22;21042;47.620;12.188;2022-09-30T12:57:07;14.40;99.90
34829;DHT22;21042;47.620;12.188;2022-09-30T12:59:38;14.50;99.90
34829;DHT22;21042;47.620;12.188;2022-09-30T13:02:26;14.50;99.90
34829;DHT22;21042;47.620;12.188;2022-09-30T13:05:41;14.50;99.90
34829;DHT22;21042;47.620;12.188;2022-09-30T13:10:56;14.60;99.90
34829;DHT22;21042;47.620;12.188;2022-09-30T13:13:26;14.50;99.90
34829;DHT22;21042;47.620;12.188;2022-09-30T13:15:54;14.40;99.90
34829;DHT22;21042;47.620;12.188;2022-09-30T13:28:51;14.40;99.90
34829;DHT22;21042;47.620;12.188;2022-09-30T13:31:25;14.40;99.90
34829;DHT22;21042;47.620;12.188;2022-09-30T13:36:57;14.20;99.90
34829;DHT22;21042;47.620;12.188;2022-09-30T13:44:43;14.30;99.90
34829;DHT22;21042;47.620;12.188;2022-09-30T13:47:25;14.30;99.90
34829;DHT22;21042;47.620;12.188;2022-09-30T13:50:11;14.40;99.90
34829;DHT22;21042;47.620;12.188;2022-09-30T13:52:39;14.40;99.90
34829;DHT22;21042;47.620;12.188;2022-09-30T14:00:17;14.30;99.90
34829;DHT22;21042;47.620;12.188;2022-09-30T14:12:25;14.50;99.90
34829;DHT22;21042;47.620;12.188;2022-09-30T14:23:13;14.50;99.90
34829;DHT22;21042;47.620;12.188;2022-09-30T14:25:52;14.30;99.90
34829;DHT22;21042;47.620;12.188;2022-09-30T14:31:30;14.10;99.90
34829;DHT22;21042;47.620;12.188;2022-09-30T14:33:58;14.20;99.90
34829;DHT22;21042;47.620;12.188;2022-09-30T14:36:25;14.20;99.90
34829;DHT22;21042;47.620;12.188;2022-09-30T14:38:57;14.20;99.90
34829;DHT22;21042;47.620;12.188;2022-09-30T14:41:25;14.30;99.90
34829;DHT22;21042;47.620;12.188;2022-09-30T14:43:56;14.30;99.90
34829;DHT22;21042;47.620;12.188;2022-09-30T14:46:28;14.40;99.90
34829;DHT22;21042;47.620;12.188;2022-09-30T14:49:02;14.40;99.90
34829;DHT22;21042;47.620;12.188;2022-09-30T14:51:41;14.40;99.90
34829;DHT22;21042;47.620;12.188;2022-09-30T14:54:25;14.20;99.90
34829;DHT22;21042;47.620;12.188;2022-09-30T14:56:56;14.10;99.90
34829;DHT22;21042;47.620;12.188;2022-09-30T14:59:27;14.10;99.90
34829;DHT22;21042;47.620;12.188;2022-09-30T15:02:00;14.00;99.90
34829;DHT22;21042;47.620;12.188;2022-09-30T15:04:37;13.80;99.90
34829;DHT22;21042;47.620;12.188;2022-09-30T15:07:09;13.70;99.90
34829;DHT22;21042;47.620;12.188;2022-09-30T15:09:40;13.60;99.90
34829;DHT22;21042;47.620;12.188;2022-09-30T15:12:16;13.50;99.90
34829;DHT22;21042;47.620;12.188;2022-09-30T15:14:47;13.40;99.90
34829;DHT22;21042;47.620;12.188;2022-09-30T15:17:20;13.40;99.90
34829;DHT22;21042;47.620;12.188;2022-09-30T15:19:47;13.30;99.90
34829;DHT22;21042;47.620;12.188;2022-09-30T15:22:16;13.30;99.90
34829;DHT22;21042;47.620;12.188;2022-09-30T15:24:45;13.20;99.90
34829;DHT22;21042;47.620;12.188;2022-09-30T15:27:21;13.20;99.90
34829;DHT22;21042;47.620;12.188;2022-09-30T15:29:59;13.20;99.90
34829;DHT22;21042;47.620;12.188;2022-09-30T15:32:29;13.30;99.90
34829;DHT22;21042;47.620;12.188;2022-09-30T15:35:13;13.30;99.90
34829;DHT22;21042;47.620;12.188;2022-09-30T15:37:41;13.20;99.90
34829;DHT22;21042;47.620;12.188;2022-09-30T15:40:17;13.30;99.90
34829;DHT22;21042;47.620;12.188;2022-09-30T15:43:06;13.20;99.90
34829;DHT22;21042;47.620;12.188;2022-09-30T15:45:40;13.20;99.90
34829;DHT22;21042;47.620;12.188;2022-09-30T15:50:46;13.20;99.90
34829;DHT22;21042;47.620;12.188;2022-09-30T15:55:58;13.10;99.90
34829;DHT22;21042;47.620;12.188;2022-09-30T16:01:11;13.10;99.90
34829;DHT22;21042;47.620;12.188;2022-09-30T16:04:00;13.00;99.90
34829;DHT22;21042;47.620;12.188;2022-09-30T16:06:46;12.90;99.90
34829;DHT22;21042;47.620;12.188;2022-09-30T16:11:46;12.80;99.90
34829;DHT22;21042;47.620;12.188;2022-09-30T16:14:29;12.80;99.90
34829;DHT22;21042;47.620;12.188;2022-09-30T16:16:59;12.70;99.90
34829;DHT22;21042;47.620;12.188;2022-09-30T16:19:28;12.60;99.90
34829;DHT22;21042;47.620;12.188;2022-09-30T16:21:56;12.60;99.90
34829;DHT22;21042;47.620;12.188;2022-09-30T16:26:55;12.60;99.90
34829;DHT22;21042;47.620;12.188;2022-09-30T16:29:23;12.50;99.90
34829;DHT22;21042;47.620;12.188;2022-09-30T16:31:53;12.40;99.90
34829;DHT22;21042;47.620;12.188;2022-09-30T16:34:22;12.50;99.90
34829;DHT22;21042;47.620;12.188;2022-09-30T16:36:49;12.30;99.90
34829;DHT22;21042;47.620;12.188;2022-09-30T16:39:18;12.20;99.90
34829;DHT22;21042;47.620;12.188;2022-09-30T16:41:45;12.20;99.90
34829;DHT22;21042;47.620;12.188;2022-09-30T16:44:12;12.20;99.90
34829;DHT22;21042;47.620;12.188;2022-09-30T16:46:39;12.10;99.90
34829;DHT22;21042;47.620;12.188;2022-09-30T16:49:14;12.10;99.90
34829;DHT22;21042;47.620;12.188;2022-09-30T16:51:42;12.10;99.90
34829;DHT22;21042;47.620;12.188;2022-09-30T16:54:10;12.00;99.90
34829;DHT22;21042;47.620;12.188;2022-09-30T16:56:37;12.00;99.90
34829;DHT22;21042;47.620;12.188;2022-09-30T16:59:12;11.90;99.90
34829;DHT22;21042;47.620;12.188;2022-09-30T17:01:40;11.80;99.90
34829;DHT22;21042;47.620;12.188;2022-09-30T17:04:08;11.80;99.90
34829;DHT22;21042;47.620;12.188;2022-09-30T17:06:40;11.80;99.90
34829;DHT22;21042;47.620;12.188;2022-09-30T17:09:07;11.70;99.90
34829;DHT22;21042;47.620;12.188;2022-09-30T17:11:34;11.70;99.90
34829;DHT22;21042;47.620;12.188;2022-09-30T17:14:03;11.70;99.90
34829;DHT22;21042;47.620;12.188;2022-09-30T17:16:30;11.80;99.90
34829;DHT22;21042;47.620;12.188;2022-09-30T17:18:57;11.60;99.90
34829;DHT22;21042;47.620;12.188;2022-09-30T17:21:25;11.60;99.90
34829;DHT22;21042;47.620;12.188;2022-09-30T17:23:55;11.70;99.90
34829;DHT22;21042;47.620;12.188;2022-09-30T17:26:23;11.60;99.90
34829;DHT22;21042;47.620;12.188;2022-09-30T17:28:50;11.70;99.90
34829;DHT22;21042;47.620;12.188;2022-09-30T17:31:16;11.60;99.90
34829;DHT22;21042;47.620;12.188;2022-09-30T17:33:43;11.70;99.90
34829;DHT22;21042;47.620;12.188;2022-09-30T17:36:11;11.60;99.90
34829;DHT22;21042;47.620;12.188;2022-09-30T17:38:38;11.60;99.90
34829;DHT22;21042;47.620;12.188;2022-09-30T17:41:06;11.60;99.90
34829;DHT22;21042;47.620;12.188;2022-09-30T17:43:51;11.60;99.90
34829;DHT22;21042;47.620;12.188;2022-09-30T17:46:19;11.60;99.90
34829;DHT22;21042;47.620;12.188;2022-09-30T17:48:49;11.50;99.90
34829;DHT22;21042;47.620;12.188;2022-09-30T17:51:19;11.50;99.90
34829;DHT22;21042;47.620;12.188;2022-09-30T17:53:46;11.50;99.90
34829;DHT22;21042;47.620;12.188;2022-09-30T17:56:18;11.50;99.90
34829;DHT22;21042;47.620;12.188;2022-09-30T17:58:47;11.50;99.90
34829;DHT22;21042;47.620;12.188;2022-09-30T18:01:16;11.50;99.90
34829;DHT22;21042;47.620;12.188;2022-09-30T18:03:43;11.50;99.90
34829;DHT22;21042;47.620;12.188;2022-09-30T18:06:11;11.50;99.90
34829;DHT22;21042;47.620;12.188;2022-09-30T18:08:39;11.40;99.90
34829;DHT22;21042;47.620;12.188;2022-09-30T18:11:06;11.40;99.90
34829;DHT22;21042;47.620;12.188;2022-09-30T18:13:33;11.40;99.90
34829;DHT22;21042;47.620;12.188;2022-09-30T18:16:04;11.40;99.90
34829;DHT22;21042;47.620;12.188;2022-09-30T18:18:35;11.40;99.90
34829;DHT22;21042;47.620;12.188;2022-09-30T18:21:02;11.40;99.90
34829;DHT22;21042;47.620;12.188;2022-09-30T18:23:29;11.40;99.90
34829;DHT22;21042;47.620;12.188;2022-09-30T18:25:55;11.40;99.90
34829;DHT22;21042;47.620;12.188;2022-09-30T18:28:23;11.40;99.90
34829;DHT22;21042;47.620;12.188;2022-09-30T18:30:50;11.40;99.90
34829;DHT22;21042;47.620;12.188;2022-09-30T18:33:17;11.40;99.90
34829;DHT22;21042;47.620;12.188;2022-09-30T18:35:47;11.40;99.90
34829;DHT22;21042;47.620;12.188;2022-09-30T18:38:14;11.40;99.90
34829;DHT22;21042;47.620;12.188;2022-09-30T18:40:41;11.40;99.90
34829;DHT22;21042;47.620;12.188;2022-09-30T18:43:11;11.40;99.90
34829;DHT22;21042;47.620;12.188;2022-09-30T18:45:39;11.40;99.90
34829;DHT22;21042;47.620;12.188;2022-09-30T18:48:06;11.50;99.90
34829;DHT22;21042;47.620;12.188;2022-09-30T18:50:33;11.40;99.90
34829;DHT22;21042;47.620;12.188;2022-09-30T18:53:00;11.40;99.90
34829;DHT22;21042;47.620;12.188;2022-09-30T18:55:36;11.30;99.90
34829;DHT22;21042;47.620;12.188;2022-09-30T18:58:04;11.30;99.90
34829;DHT22;21042;47.620;12.188;2022-09-30T19:00:31;11.30;99.90
34829;DHT22;21042;47.620;12.188;2022-09-30T19:02:58;11.30;99.90
34829;DHT22;21042;47.620;12.188;2022-09-30T19:05:25;11.30;99.90